sensor_id;sensor_type;location;lat;lon;timestamp;P1;durP1;ratioP1;P2;durP2;ratioP2
13951;SDS011;39535;52.192;9.886;2023-02-15T00:01:33;7.57;;;6.93;;
13951;SDS011;39535;52.192;9.886;2023-02-15T00:04:01;7.93;;;7.23;;
13951;SDS011;39535;52.192;9.886;2023-02-15T00:06:28;7.53;;;6.83;;
13951;SDS011;39535;52.192;9.886;2023-02-15T00:08:54;7.65;;;7.15;;
13951;SDS011;39535;52.192;9.886;2023-02-15T00:11:21;6.33;;;5.83;;
13951;SDS011;39535;52.192;9.886;2023-02-15T00:14:03;6.73;;;6.20;;
13951;SDS011;39535;52.192;9.886;2023-02-15T00:16:30;6.23;;;5.73;;
13951;SDS011;39535;52.192;9.886;2023-02-15T00:18:56;6.87;;;6.27;;
13951;SDS011;39535;52.192;9.886;2023-02-15T00:21:26;6.07;;;5.57;;
13951;SDS011;39535;52.192;9.886;2023-02-15T00:23:53;6.07;;;5.57;;
13951;SDS011;39535;52.192;9.886;2023-02-15T00:26:19;5.67;;;5.17;;
13951;SDS011;39535;52.192;9.886;2023-02-15T00:28:46;5.60;;;5.10;;
13951;SDS011;39535;52.192;9.886;2023-02-15T00:31:13;5.07;;;4.67;;
13951;SDS011;39535;52.192;9.886;2023-02-15T00:33:40;5.33;;;4.93;;
13951;SDS011;39535;52.192;9.886;2023-02-15T00:36:07;5.57;;;4.97;;
13951;SDS011;39535;52.192;9.886;2023-02-15T00:38:35;4.97;;;4.50;;
13951;SDS011;39535;52.192;9.886;2023-02-15T00:41:02;5.17;;;4.40;;
13951;SDS011;39535;52.192;9.886;2023-02-15T00:43:30;5.57;;;4.93;;
13951;SDS011;39535;52.192;9.886;2023-02-15T00:45:58;5.77;;;5.23;;
13951;SDS011;39535;52.192;9.886;2023-02-15T00:48:26;5.17;;;4.73;;
13951;SDS011;39535;52.192;9.886;2023-02-15T00:50:53;5.10;;;4.70;;
13951;SDS011;39535;52.192;9.886;2023-02-15T00:53:21;5.60;;;5.10;;
13951;SDS011;39535;52.192;9.886;2023-02-15T00:55:47;8.23;;;7.53;;
13951;SDS011;39535;52.192;9.886;2023-02-15T00:58:14;6.40;;;5.63;;
13951;SDS011;39535;52.192;9.886;2023-02-15T01:00:42;5.17;;;4.67;;
13951;SDS011;39535;52.192;9.886;2023-02-15T01:03:09;5.47;;;5.00;;
13951;SDS011;39535;52.192;9.886;2023-02-15T01:05:37;4.80;;;4.37;;
13951;SDS011;39535;52.192;9.886;2023-02-15T01:08:04;6.03;;;5.53;;
13951;SDS011;39535;52.192;9.886;2023-02-15T01:10:30;7.33;;;6.63;;
13951;SDS011;39535;52.192;9.886;2023-02-15T01:12:57;7.10;;;6.50;;
13951;SDS011;39535;52.192;9.886;2023-02-15T01:15:24;8.53;;;7.70;;
13951;SDS011;39535;52.192;9.886;2023-02-15T01:17:50;8.07;;;7.37;;
13951;SDS011;39535;52.192;9.886;2023-02-15T01:20:18;7.77;;;7.03;;
13951;SDS011;39535;52.192;9.886;2023-02-15T01:22:47;7.77;;;6.97;;
13951;SDS011;39535;52.192;9.886;2023-02-15T01:25:15;9.60;;;8.70;;
13951;SDS011;39535;52.192;9.886;2023-02-15T01:27:41;8.50;;;7.70;;
13951;SDS011;39535;52.192;9.886;2023-02-15T01:30:08;7.40;;;6.80;;
13951;SDS011;39535;52.192;9.886;2023-02-15T01:32:35;7.53;;;6.93;;
13951;SDS011;39535;52.192;9.886;2023-02-15T01:35:02;8.50;;;7.80;;
13951;SDS011;39535;52.192;9.886;2023-02-15T01:37:29;8.87;;;8.07;;
13951;SDS011;39535;52.192;9.886;2023-02-15T01:39:57;7.60;;;6.90;;
13951;SDS011;39535;52.192;9.886;2023-02-15T01:42:25;7.63;;;6.93;;
13951;SDS011;39535;52.192;9.886;2023-02-15T01:44:53;8.53;;;7.73;;
13951;SDS011;39535;52.192;9.886;2023-02-15T01:47:22;6.80;;;6.20;;
13951;SDS011;39535;52.192;9.886;2023-02-15T01:50:02;7.47;;;6.77;;
13951;SDS011;39535;52.192;9.886;2023-02-15T01:52:35;7.60;;;6.90;;
13951;SDS011;39535;52.192;9.886;2023-02-15T01:55:06;8.33;;;7.60;;
13951;SDS011;39535;52.192;9.886;2023-02-15T01:57:34;9.40;;;8.50;;
13951;SDS011;39535;52.192;9.886;2023-02-15T02:00:04;10.20;;;9.30;;
13951;SDS011;39535;52.192;9.886;2023-02-15T02:02:34;10.23;;;8.90;;
13951;SDS011;39535;52.192;9.886;2023-02-15T02:05:02;10.13;;;9.27;;
13951;SDS011;39535;52.192;9.886;2023-02-15T02:07:32;9.23;;;8.43;;
13951;SDS011;39535;52.192;9.886;2023-02-15T02:10:01;8.73;;;7.97;;
13951;SDS011;39535;52.192;9.886;2023-02-15T02:12:29;8.27;;;7.50;;
13951;SDS011;39535;52.192;9.886;2023-02-15T02:14:57;8.90;;;8.10;;
13951;SDS011;39535;52.192;9.886;2023-02-15T02:17:27;7.20;;;6.50;;
13951;SDS011;39535;52.192;9.886;2023-02-15T02:20:16;9.00;;;8.20;;
13951;SDS011;39535;52.192;9.886;2023-02-15T02:23:02;7.60;;;6.93;;
13951;SDS011;39535;52.192;9.886;2023-02-15T02:25:44;6.33;;;5.83;;
13951;SDS011;39535;52.192;9.886;2023-02-15T02:28:46;6.93;;;6.43;;
13951;SDS011;39535;52.192;9.886;2023-02-15T02:31:43;7.17;;;6.57;;
13951;SDS011;39535;52.192;9.886;2023-02-15T02:34:30;6.93;;;6.23;;
13951;SDS011;39535;52.192;9.886;2023-02-15T02:37:03;7.40;;;6.70;;
13951;SDS011;39535;52.192;9.886;2023-02-15T02:39:39;6.67;;;6.07;;
13951;SDS011;39535;52.192;9.886;2023-02-15T02:42:15;6.97;;;6.37;;
13951;SDS011;39535;52.192;9.886;2023-02-15T02:44:51;5.97;;;5.47;;
13951;SDS011;39535;52.192;9.886;2023-02-15T02:47:26;6.33;;;5.80;;
13951;SDS011;39535;52.192;9.886;2023-02-15T02:50:00;8.10;;;7.37;;
13951;SDS011;39535;52.192;9.886;2023-02-15T02:52:36;6.57;;;5.97;;
13951;SDS011;39535;52.192;9.886;2023-02-15T02:55:05;6.93;;;6.33;;
13951;SDS011;39535;52.192;9.886;2023-02-15T02:57:34;6.90;;;6.30;;
13951;SDS011;39535;52.192;9.886;2023-02-15T03:00:07;5.87;;;5.37;;
13951;SDS011;39535;52.192;9.886;2023-02-15T03:02:36;7.33;;;6.63;;
13951;SDS011;39535;52.192;9.886;2023-02-15T03:05:09;7.87;;;7.00;;
13951;SDS011;39535;52.192;9.886;2023-02-15T03:07:41;6.53;;;6.03;;
13951;SDS011;39535;52.192;9.886;2023-02-15T03:10:09;7.13;;;6.53;;
13951;SDS011;39535;52.192;9.886;2023-02-15T03:12:37;6.60;;;6.10;;
13951;SDS011;39535;52.192;9.886;2023-02-15T03:15:06;6.40;;;5.80;;
13951;SDS011;39535;52.192;9.886;2023-02-15T03:17:37;6.47;;;5.87;;
13951;SDS011;39535;52.192;9.886;2023-02-15T03:20:07;5.70;;;5.30;;
13951;SDS011;39535;52.192;9.886;2023-02-15T03:22:40;6.70;;;6.00;;
13951;SDS011;39535;52.192;9.886;2023-02-15T03:25:13;7.80;;;6.27;;
13951;SDS011;39535;52.192;9.886;2023-02-15T03:27:43;7.33;;;6.73;;
13951;SDS011;39535;52.192;9.886;2023-02-15T03:30:11;8.40;;;6.87;;
13951;SDS011;39535;52.192;9.886;2023-02-15T03:32:41;6.47;;;5.87;;
13951;SDS011;39535;52.192;9.886;2023-02-15T03:35:10;6.97;;;6.37;;
13951;SDS011;39535;52.192;9.886;2023-02-15T03:37:37;8.67;;;7.87;;
13951;SDS011;39535;52.192;9.886;2023-02-15T03:40:07;8.47;;;7.70;;
13951;SDS011;39535;52.192;9.886;2023-02-15T03:42:56;9.40;;;8.50;;
13951;SDS011;39535;52.192;9.886;2023-02-15T03:45:29;8.77;;;7.83;;
13951;SDS011;39535;52.192;9.886;2023-02-15T03:47:59;9.00;;;8.10;;
13951;SDS011;39535;52.192;9.886;2023-02-15T03:50:29;8.47;;;7.63;;
13951;SDS011;39535;52.192;9.886;2023-02-15T03:53:17;9.43;;;8.63;;
13951;SDS011;39535;52.192;9.886;2023-02-15T03:55:46;10.43;;;9.43;;
13951;SDS011;39535;52.192;9.886;2023-02-15T03:58:13;10.33;;;9.47;;
13951;SDS011;39535;52.192;9.886;2023-02-15T04:00:58;10.07;;;9.17;;
13951;SDS011;39535;52.192;9.886;2023-02-15T04:03:45;10.20;;;9.17;;
13951;SDS011;39535;52.192;9.886;2023-02-15T04:06:19;10.43;;;9.53;;
13951;SDS011;39535;52.192;9.886;2023-02-15T04:08:45;9.40;;;8.60;;
13951;SDS011;39535;52.192;9.886;2023-02-15T04:11:30;8.97;;;8.17;;
13951;SDS011;39535;52.192;9.886;2023-02-15T04:13:56;9.47;;;8.63;;
13951;SDS011;39535;52.192;9.886;2023-02-15T04:16:23;8.70;;;8.00;;
13951;SDS011;39535;52.192;9.886;2023-02-15T04:18:49;8.63;;;7.83;;
13951;SDS011;39535;52.192;9.886;2023-02-15T04:21:34;9.07;;;7.67;;
13951;SDS011;39535;52.192;9.886;2023-02-15T04:24:18;8.47;;;7.60;;
13951;SDS011;39535;52.192;9.886;2023-02-15T04:27:03;8.90;;;8.00;;
13951;SDS011;39535;52.192;9.886;2023-02-15T04:29:30;9.27;;;8.47;;
13951;SDS011;39535;52.192;9.886;2023-02-15T04:31:58;9.07;;;8.20;;
13951;SDS011;39535;52.192;9.886;2023-02-15T04:34:26;8.83;;;8.03;;
13951;SDS011;39535;52.192;9.886;2023-02-15T04:36:53;9.17;;;8.30;;
13951;SDS011;39535;52.192;9.886;2023-02-15T04:39:20;8.27;;;7.47;;
13951;SDS011;39535;52.192;9.886;2023-02-15T04:41:46;9.23;;;8.20;;
13951;SDS011;39535;52.192;9.886;2023-02-15T04:44:13;9.73;;;8.83;;
13951;SDS011;39535;52.192;9.886;2023-02-15T04:46:40;9.60;;;8.80;;
13951;SDS011;39535;52.192;9.886;2023-02-15T04:49:07;9.50;;;8.60;;
13951;SDS011;39535;52.192;9.886;2023-02-15T04:51:34;9.00;;;8.20;;
13951;SDS011;39535;52.192;9.886;2023-02-15T04:54:02;8.53;;;7.63;;
13951;SDS011;39535;52.192;9.886;2023-02-15T04:56:28;9.80;;;8.80;;
13951;SDS011;39535;52.192;9.886;2023-02-15T04:58:56;11.90;;;10.80;;
13951;SDS011;39535;52.192;9.886;2023-02-15T05:01:22;11.40;;;10.40;;
13951;SDS011;39535;52.192;9.886;2023-02-15T05:03:49;11.13;;;9.97;;
13951;SDS011;39535;52.192;9.886;2023-02-15T05:06:15;11.60;;;10.40;;
13951;SDS011;39535;52.192;9.886;2023-02-15T05:08:41;11.23;;;10.13;;
13951;SDS011;39535;52.192;9.886;2023-02-15T05:11:09;9.80;;;8.73;;
13951;SDS011;39535;52.192;9.886;2023-02-15T05:13:36;10.87;;;9.87;;
13951;SDS011;39535;52.192;9.886;2023-02-15T05:16:02;11.17;;;10.17;;
13951;SDS011;39535;52.192;9.886;2023-02-15T05:18:29;10.97;;;9.93;;
13951;SDS011;39535;52.192;9.886;2023-02-15T05:20:55;11.97;;;10.73;;
13951;SDS011;39535;52.192;9.886;2023-02-15T05:23:21;10.37;;;9.33;;
13951;SDS011;39535;52.192;9.886;2023-02-15T05:25:48;11.47;;;10.37;;
13951;SDS011;39535;52.192;9.886;2023-02-15T05:28:35;9.73;;;8.83;;
13951;SDS011;39535;52.192;9.886;2023-02-15T05:31:05;9.93;;;9.03;;
13951;SDS011;39535;52.192;9.886;2023-02-15T05:33:33;10.97;;;9.87;;
13951;SDS011;39535;52.192;9.886;2023-02-15T05:36:00;10.63;;;8.20;;
13951;SDS011;39535;52.192;9.886;2023-02-15T05:38:26;12.73;;;11.53;;
13951;SDS011;39535;52.192;9.886;2023-02-15T05:40:53;11.30;;;10.30;;
13951;SDS011;39535;52.192;9.886;2023-02-15T05:43:19;11.33;;;10.33;;
13951;SDS011;39535;52.192;9.886;2023-02-15T05:45:48;10.50;;;9.40;;
13951;SDS011;39535;52.192;9.886;2023-02-15T05:48:15;10.57;;;9.57;;
13951;SDS011;39535;52.192;9.886;2023-02-15T05:50:43;11.17;;;10.07;;
13951;SDS011;39535;52.192;9.886;2023-02-15T05:53:10;12.10;;;10.93;;
13951;SDS011;39535;52.192;9.886;2023-02-15T05:55:37;12.80;;;11.60;;
13951;SDS011;39535;52.192;9.886;2023-02-15T05:58:04;13.87;;;12.47;;
13951;SDS011;39535;52.192;9.886;2023-02-15T06:00:31;12.50;;;11.37;;
13951;SDS011;39535;52.192;9.886;2023-02-15T06:02:58;12.13;;;11.03;;
13951;SDS011;39535;52.192;9.886;2023-02-15T06:05:25;12.03;;;10.93;;
13951;SDS011;39535;52.192;9.886;2023-02-15T06:07:51;12.70;;;11.40;;
13951;SDS011;39535;52.192;9.886;2023-02-15T06:10:18;13.77;;;12.37;;
13951;SDS011;39535;52.192;9.886;2023-02-15T06:12:44;13.47;;;12.07;;
13951;SDS011;39535;52.192;9.886;2023-02-15T06:15:11;13.83;;;12.50;;
13951;SDS011;39535;52.192;9.886;2023-02-15T06:17:40;12.47;;;11.27;;
13951;SDS011;39535;52.192;9.886;2023-02-15T06:20:09;12.70;;;11.50;;
13951;SDS011;39535;52.192;9.886;2023-02-15T06:22:36;10.47;;;9.37;;
13951;SDS011;39535;52.192;9.886;2023-02-15T06:25:02;10.73;;;9.57;;
13951;SDS011;39535;52.192;9.886;2023-02-15T06:27:29;10.37;;;8.60;;
13951;SDS011;39535;52.192;9.886;2023-02-15T06:29:56;10.43;;;9.47;;
13951;SDS011;39535;52.192;9.886;2023-02-15T06:32:22;10.37;;;9.27;;
13951;SDS011;39535;52.192;9.886;2023-02-15T06:34:48;9.03;;;8.17;;
13951;SDS011;39535;52.192;9.886;2023-02-15T06:37:16;10.67;;;9.67;;
13951;SDS011;39535;52.192;9.886;2023-02-15T06:39:42;9.73;;;8.87;;
13951;SDS011;39535;52.192;9.886;2023-02-15T06:42:09;12.40;;;11.30;;
13951;SDS011;39535;52.192;9.886;2023-02-15T06:44:36;13.70;;;12.30;;
13951;SDS011;39535;52.192;9.886;2023-02-15T06:47:02;14.97;;;13.40;;
13951;SDS011;39535;52.192;9.886;2023-02-15T06:49:29;13.37;;;12.07;;
13951;SDS011;39535;52.192;9.886;2023-02-15T06:51:55;15.10;;;13.60;;
13951;SDS011;39535;52.192;9.886;2023-02-15T06:54:23;13.73;;;12.33;;
13951;SDS011;39535;52.192;9.886;2023-02-15T06:56:49;15.60;;;14.03;;
13951;SDS011;39535;52.192;9.886;2023-02-15T06:59:16;15.23;;;13.63;;
13951;SDS011;39535;52.192;9.886;2023-02-15T07:01:42;13.93;;;12.67;;
13951;SDS011;39535;52.192;9.886;2023-02-15T07:04:09;18.00;;;13.73;;
13951;SDS011;39535;52.192;9.886;2023-02-15T07:06:35;13.87;;;12.57;;
13951;SDS011;39535;52.192;9.886;2023-02-15T07:09:02;14.03;;;12.63;;
13951;SDS011;39535;52.192;9.886;2023-02-15T07:11:30;106.47;;;19.30;;
13951;SDS011;39535;52.192;9.886;2023-02-15T07:14:14;33.70;;;18.00;;
13951;SDS011;39535;52.192;9.886;2023-02-15T07:16:41;16.63;;;14.90;;
13951;SDS011;39535;52.192;9.886;2023-02-15T07:19:07;13.10;;;11.83;;
13951;SDS011;39535;52.192;9.886;2023-02-15T07:21:34;13.83;;;12.57;;
13951;SDS011;39535;52.192;9.886;2023-02-15T07:24:00;14.50;;;13.20;;
13951;SDS011;39535;52.192;9.886;2023-02-15T07:26:27;16.93;;;15.13;;
13951;SDS011;39535;52.192;9.886;2023-02-15T07:28:55;18.13;;;15.60;;
13951;SDS011;39535;52.192;9.886;2023-02-15T07:31:21;14.43;;;12.93;;
13951;SDS011;39535;52.192;9.886;2023-02-15T07:33:47;14.00;;;12.53;;
13951;SDS011;39535;52.192;9.886;2023-02-15T07:36:14;14.27;;;12.93;;
13951;SDS011;39535;52.192;9.886;2023-02-15T07:38:40;14.23;;;12.93;;
13951;SDS011;39535;52.192;9.886;2023-02-15T07:41:08;13.33;;;12.07;;
13951;SDS011;39535;52.192;9.886;2023-02-15T07:43:36;13.27;;;12.07;;
13951;SDS011;39535;52.192;9.886;2023-02-15T07:46:06;14.17;;;12.77;;
13951;SDS011;39535;52.192;9.886;2023-02-15T07:48:34;14.77;;;13.40;;
13951;SDS011;39535;52.192;9.886;2023-02-15T07:51:01;14.03;;;12.57;;
13951;SDS011;39535;52.192;9.886;2023-02-15T07:53:29;13.37;;;12.07;;
13951;SDS011;39535;52.192;9.886;2023-02-15T07:55:57;14.03;;;12.63;;
13951;SDS011;39535;52.192;9.886;2023-02-15T07:58:24;13.83;;;12.53;;
13951;SDS011;39535;52.192;9.886;2023-02-15T08:01:12;14.73;;;11.93;;
13951;SDS011;39535;52.192;9.886;2023-02-15T08:03:38;13.67;;;12.27;;
13951;SDS011;39535;52.192;9.886;2023-02-15T08:06:05;15.37;;;13.73;;
13951;SDS011;39535;52.192;9.886;2023-02-15T08:08:33;14.67;;;13.17;;
13951;SDS011;39535;52.192;9.886;2023-02-15T08:11:00;14.90;;;13.40;;
13951;SDS011;39535;52.192;9.886;2023-02-15T08:13:42;15.45;;;14.05;;
13951;SDS011;39535;52.192;9.886;2023-02-15T08:16:19;13.70;;;12.30;;
13951;SDS011;39535;52.192;9.886;2023-02-15T08:18:48;12.40;;;11.10;;
13951;SDS011;39535;52.192;9.886;2023-02-15T08:21:14;11.80;;;10.63;;
13951;SDS011;39535;52.192;9.886;2023-02-15T08:23:41;12.10;;;11.00;;
13951;SDS011;39535;52.192;9.886;2023-02-15T08:26:07;12.27;;;11.07;;
13951;SDS011;39535;52.192;9.886;2023-02-15T08:28:34;11.40;;;10.30;;
13951;SDS011;39535;52.192;9.886;2023-02-15T08:31:03;11.47;;;10.37;;
13951;SDS011;39535;52.192;9.886;2023-02-15T08:33:32;12.63;;;11.43;;
13951;SDS011;39535;52.192;9.886;2023-02-15T08:36:02;11.80;;;10.70;;
13951;SDS011;39535;52.192;9.886;2023-02-15T08:38:29;12.90;;;11.67;;
13951;SDS011;39535;52.192;9.886;2023-02-15T08:40:55;11.30;;;10.30;;
13951;SDS011;39535;52.192;9.886;2023-02-15T08:43:21;11.10;;;9.90;;
13951;SDS011;39535;52.192;9.886;2023-02-15T08:45:48;11.27;;;10.23;;
13951;SDS011;39535;52.192;9.886;2023-02-15T08:48:14;10.43;;;9.43;;
13951;SDS011;39535;52.192;9.886;2023-02-15T08:50:42;8.17;;;7.47;;
13951;SDS011;39535;52.192;9.886;2023-02-15T08:53:08;8.80;;;8.10;;
13951;SDS011;39535;52.192;9.886;2023-02-15T08:55:35;9.70;;;8.90;;
13951;SDS011;39535;52.192;9.886;2023-02-15T08:58:01;8.70;;;8.00;;
13951;SDS011;39535;52.192;9.886;2023-02-15T09:00:28;9.40;;;8.73;;
13951;SDS011;39535;52.192;9.886;2023-02-15T09:02:54;7.70;;;7.07;;
13951;SDS011;39535;52.192;9.886;2023-02-15T09:05:21;8.20;;;7.40;;
13951;SDS011;39535;52.192;9.886;2023-02-15T09:07:48;13.03;;;11.93;;
13951;SDS011;39535;52.192;9.886;2023-02-15T09:10:15;8.97;;;8.27;;
13951;SDS011;39535;52.192;9.886;2023-02-15T09:12:42;7.73;;;7.13;;
13951;SDS011;39535;52.192;9.886;2023-02-15T09:15:08;8.63;;;7.63;;
13951;SDS011;39535;52.192;9.886;2023-02-15T09:17:35;9.33;;;8.57;;
13951;SDS011;39535;52.192;9.886;2023-02-15T09:20:02;9.10;;;8.20;;
13951;SDS011;39535;52.192;9.886;2023-02-15T09:22:29;11.17;;;10.17;;
13951;SDS011;39535;52.192;9.886;2023-02-15T09:24:57;12.13;;;11.13;;
13951;SDS011;39535;52.192;9.886;2023-02-15T09:27:24;11.37;;;10.37;;
13951;SDS011;39535;52.192;9.886;2023-02-15T09:29:50;12.73;;;11.27;;
13951;SDS011;39535;52.192;9.886;2023-02-15T09:32:16;11.53;;;10.53;;
13951;SDS011;39535;52.192;9.886;2023-02-15T09:34:43;10.90;;;9.63;;
13951;SDS011;39535;52.192;9.886;2023-02-15T09:37:09;10.27;;;9.33;;
13951;SDS011;39535;52.192;9.886;2023-02-15T09:39:36;12.33;;;11.23;;
13951;SDS011;39535;52.192;9.886;2023-02-15T09:42:19;12.07;;;10.90;;
13951;SDS011;39535;52.192;9.886;2023-02-15T09:45:03;9.83;;;8.93;;
13951;SDS011;39535;52.192;9.886;2023-02-15T09:47:46;9.77;;;8.77;;
13951;SDS011;39535;52.192;9.886;2023-02-15T09:50:27;10.63;;;9.73;;
13951;SDS011;39535;52.192;9.886;2023-02-15T09:53:03;13.00;;;11.90;;
13951;SDS011;39535;52.192;9.886;2023-02-15T09:55:44;9.77;;;8.97;;
13951;SDS011;39535;52.192;9.886;2023-02-15T09:58:20;10.90;;;9.90;;
13951;SDS011;39535;52.192;9.886;2023-02-15T10:00:56;11.63;;;10.63;;
13951;SDS011;39535;52.192;9.886;2023-02-15T10:03:38;10.00;;;9.10;;
13951;SDS011;39535;52.192;9.886;2023-02-15T10:06:23;10.07;;;9.17;;
13951;SDS011;39535;52.192;9.886;2023-02-15T10:09:02;9.57;;;8.77;;
13951;SDS011;39535;52.192;9.886;2023-02-15T10:11:40;8.53;;;7.80;;
13951;SDS011;39535;52.192;9.886;2023-02-15T10:14:34;9.60;;;8.73;;
13951;SDS011;39535;52.192;9.886;2023-02-15T10:17:17;9.33;;;8.53;;
13951;SDS011;39535;52.192;9.886;2023-02-15T10:19:55;9.30;;;8.50;;
13951;SDS011;39535;52.192;9.886;2023-02-15T10:22:37;8.53;;;7.83;;
13951;SDS011;39535;52.192;9.886;2023-02-15T10:25:15;13.63;;;12.20;;
13951;SDS011;39535;52.192;9.886;2023-02-15T10:27:49;8.03;;;7.33;;
13951;SDS011;39535;52.192;9.886;2023-02-15T10:30:17;8.73;;;7.93;;
13951;SDS011;39535;52.192;9.886;2023-02-15T10:32:55;8.63;;;7.83;;
13951;SDS011;39535;52.192;9.886;2023-02-15T10:35:28;7.97;;;7.27;;
13951;SDS011;39535;52.192;9.886;2023-02-15T10:38:04;8.00;;;7.30;;
13951;SDS011;39535;52.192;9.886;2023-02-15T10:40:38;10.60;;;9.70;;
13951;SDS011;39535;52.192;9.886;2023-02-15T10:43:14;9.13;;;8.27;;
13951;SDS011;39535;52.192;9.886;2023-02-15T10:45:53;11.67;;;10.67;;
13951;SDS011;39535;52.192;9.886;2023-02-15T10:48:33;14.77;;;13.33;;
13951;SDS011;39535;52.192;9.886;2023-02-15T10:51:14;11.07;;;10.10;;
13951;SDS011;39535;52.192;9.886;2023-02-15T10:53:52;10.33;;;9.43;;
13951;SDS011;39535;52.192;9.886;2023-02-15T10:56:32;10.53;;;9.43;;
13951;SDS011;39535;52.192;9.886;2023-02-15T10:59:11;8.97;;;8.20;;
13951;SDS011;39535;52.192;9.886;2023-02-15T11:01:51;9.97;;;8.97;;
13951;SDS011;39535;52.192;9.886;2023-02-15T11:04:32;10.93;;;9.93;;
13951;SDS011;39535;52.192;9.886;2023-02-15T11:07:07;9.10;;;8.40;;
13951;SDS011;39535;52.192;9.886;2023-02-15T11:09:39;10.50;;;9.50;;
13951;SDS011;39535;52.192;9.886;2023-02-15T11:12:10;8.40;;;7.70;;
13951;SDS011;39535;52.192;9.886;2023-02-15T11:14:44;8.93;;;8.13;;
13951;SDS011;39535;52.192;9.886;2023-02-15T11:17:17;9.40;;;8.60;;
13951;SDS011;39535;52.192;9.886;2023-02-15T11:19:53;9.90;;;8.97;;
13951;SDS011;39535;52.192;9.886;2023-02-15T11:22:26;9.30;;;8.50;;
13951;SDS011;39535;52.192;9.886;2023-02-15T11:24:52;9.27;;;8.47;;
13951;SDS011;39535;52.192;9.886;2023-02-15T11:27:23;10.10;;;9.20;;
13951;SDS011;39535;52.192;9.886;2023-02-15T11:29:54;10.57;;;9.57;;
13951;SDS011;39535;52.192;9.886;2023-02-15T11:32:27;10.10;;;9.20;;
13951;SDS011;39535;52.192;9.886;2023-02-15T11:34:58;10.40;;;9.60;;
13951;SDS011;39535;52.192;9.886;2023-02-15T11:37:32;9.33;;;8.50;;
13951;SDS011;39535;52.192;9.886;2023-02-15T11:40:03;8.57;;;7.87;;
13951;SDS011;39535;52.192;9.886;2023-02-15T11:42:41;8.50;;;7.80;;
13951;SDS011;39535;52.192;9.886;2023-02-15T11:45:15;8.30;;;7.60;;
13951;SDS011;39535;52.192;9.886;2023-02-15T11:47:48;7.97;;;7.27;;
13951;SDS011;39535;52.192;9.886;2023-02-15T11:50:16;8.13;;;7.43;;
13951;SDS011;39535;52.192;9.886;2023-02-15T11:52:47;9.50;;;8.60;;
13951;SDS011;39535;52.192;9.886;2023-02-15T11:55:14;8.33;;;7.63;;
13951;SDS011;39535;52.192;9.886;2023-02-15T11:57:47;7.70;;;7.10;;
13951;SDS011;39535;52.192;9.886;2023-02-15T12:00:20;7.60;;;7.03;;
13951;SDS011;39535;52.192;9.886;2023-02-15T12:02:57;10.43;;;9.63;;
13951;SDS011;39535;52.192;9.886;2023-02-15T12:05:24;8.73;;;8.03;;
13951;SDS011;39535;52.192;9.886;2023-02-15T12:07:52;8.97;;;8.27;;
13951;SDS011;39535;52.192;9.886;2023-02-15T12:10:22;8.60;;;7.90;;
13951;SDS011;39535;52.192;9.886;2023-02-15T12:12:56;15.00;;;13.77;;
13951;SDS011;39535;52.192;9.886;2023-02-15T12:15:35;11.47;;;10.57;;
13951;SDS011;39535;52.192;9.886;2023-02-15T12:18:04;10.60;;;9.70;;
13951;SDS011;39535;52.192;9.886;2023-02-15T12:20:32;10.80;;;9.73;;
13951;SDS011;39535;52.192;9.886;2023-02-15T12:23:00;10.83;;;9.93;;
13951;SDS011;39535;52.192;9.886;2023-02-15T12:25:33;9.57;;;8.77;;
13951;SDS011;39535;52.192;9.886;2023-02-15T12:28:02;8.87;;;8.17;;
13951;SDS011;39535;52.192;9.886;2023-02-15T12:30:31;9.30;;;8.50;;
13951;SDS011;39535;52.192;9.886;2023-02-15T12:33:02;8.47;;;7.80;;
13951;SDS011;39535;52.192;9.886;2023-02-15T12:35:40;9.47;;;8.70;;
13951;SDS011;39535;52.192;9.886;2023-02-15T12:38:19;12.67;;;11.33;;
13951;SDS011;39535;52.192;9.886;2023-02-15T12:40:56;19.23;;;17.53;;
13951;SDS011;39535;52.192;9.886;2023-02-15T12:43:31;11.03;;;10.13;;
13951;SDS011;39535;52.192;9.886;2023-02-15T12:46:37;9.90;;;9.10;;
13951;SDS011;39535;52.192;9.886;2023-02-15T12:52:43;8.73;;;8.03;;
13951;SDS011;39535;52.192;9.886;2023-02-15T12:55:18;10.00;;;8.53;;
13951;SDS011;39535;52.192;9.886;2023-02-15T12:57:46;9.73;;;8.93;;
13951;SDS011;39535;52.192;9.886;2023-02-15T13:00:26;9.03;;;8.20;;
13951;SDS011;39535;52.192;9.886;2023-02-15T13:02:56;10.03;;;9.23;;
13951;SDS011;39535;52.192;9.886;2023-02-15T13:05:25;9.93;;;9.00;;
13951;SDS011;39535;52.192;9.886;2023-02-15T13:07:58;9.97;;;9.17;;
13951;SDS011;39535;52.192;9.886;2023-02-15T13:10:28;11.93;;;11.03;;
13951;SDS011;39535;52.192;9.886;2023-02-15T13:12:56;9.50;;;8.80;;
13951;SDS011;39535;52.192;9.886;2023-02-15T13:15:24;10.07;;;9.23;;
13951;SDS011;39535;52.192;9.886;2023-02-15T13:17:54;9.53;;;8.83;;
13951;SDS011;39535;52.192;9.886;2023-02-15T13:20:21;9.47;;;8.77;;
13951;SDS011;39535;52.192;9.886;2023-02-15T13:22:49;10.40;;;9.37;;
13951;SDS011;39535;52.192;9.886;2023-02-15T13:25:20;9.07;;;8.37;;
13951;SDS011;39535;52.192;9.886;2023-02-15T13:27:50;8.57;;;7.87;;
13951;SDS011;39535;52.192;9.886;2023-02-15T13:30:22;8.80;;;8.10;;
13951;SDS011;39535;52.192;9.886;2023-02-15T13:32:51;9.53;;;8.73;;
13951;SDS011;39535;52.192;9.886;2023-02-15T13:35:20;9.33;;;8.53;;
13951;SDS011;39535;52.192;9.886;2023-02-15T13:37:55;8.97;;;8.20;;
13951;SDS011;39535;52.192;9.886;2023-02-15T13:40:35;9.00;;;8.30;;
13951;SDS011;39535;52.192;9.886;2023-02-15T13:43:11;8.67;;;7.97;;
13951;SDS011;39535;52.192;9.886;2023-02-15T13:45:50;9.60;;;8.80;;
13951;SDS011;39535;52.192;9.886;2023-02-15T13:48:29;10.13;;;9.27;;
13951;SDS011;39535;52.192;9.886;2023-02-15T13:51:07;10.40;;;9.50;;
13951;SDS011;39535;52.192;9.886;2023-02-15T13:53:50;12.83;;;11.83;;
13951;SDS011;39535;52.192;9.886;2023-02-15T13:56:28;12.73;;;11.73;;
13951;SDS011;39535;52.192;9.886;2023-02-15T13:59:22;9.03;;;8.33;;
13951;SDS011;39535;52.192;9.886;2023-02-15T14:02:04;10.13;;;9.23;;
13951;SDS011;39535;52.192;9.886;2023-02-15T14:04:58;8.10;;;7.50;;
13951;SDS011;39535;52.192;9.886;2023-02-15T14:07:52;10.20;;;9.20;;
13951;SDS011;39535;52.192;9.886;2023-02-15T14:10:28;11.03;;;10.03;;
13951;SDS011;39535;52.192;9.886;2023-02-15T14:16:23;11.83;;;10.83;;
13951;SDS011;39535;52.192;9.886;2023-02-15T14:18:59;8.77;;;8.07;;
13951;SDS011;39535;52.192;9.886;2023-02-15T14:21:38;10.60;;;8.83;;
13951;SDS011;39535;52.192;9.886;2023-02-15T14:24:14;9.73;;;8.83;;
13951;SDS011;39535;52.192;9.886;2023-02-15T14:26:52;11.67;;;10.50;;
13951;SDS011;39535;52.192;9.886;2023-02-15T14:29:28;11.20;;;10.30;;
13951;SDS011;39535;52.192;9.886;2023-02-15T14:32:09;10.00;;;9.07;;
13951;SDS011;39535;52.192;9.886;2023-02-15T14:34:42;11.40;;;9.00;;
13951;SDS011;39535;52.192;9.886;2023-02-15T14:37:11;13.50;;;12.30;;
13951;SDS011;39535;52.192;9.886;2023-02-15T14:39:43;11.47;;;10.47;;
13951;SDS011;39535;52.192;9.886;2023-02-15T14:42:36;11.90;;;10.80;;
13951;SDS011;39535;52.192;9.886;2023-02-15T14:45:17;11.13;;;10.23;;
13951;SDS011;39535;52.192;9.886;2023-02-15T14:47:51;10.47;;;9.30;;
13951;SDS011;39535;52.192;9.886;2023-02-15T14:50:40;11.63;;;10.63;;
13951;SDS011;39535;52.192;9.886;2023-02-15T14:56:12;10.33;;;9.43;;
13951;SDS011;39535;52.192;9.886;2023-02-15T14:58:54;10.40;;;9.33;;
13951;SDS011;39535;52.192;9.886;2023-02-15T15:01:25;10.90;;;9.90;;
13951;SDS011;39535;52.192;9.886;2023-02-15T15:03:55;10.00;;;8.97;;
13951;SDS011;39535;52.192;9.886;2023-02-15T15:06:25;13.73;;;12.33;;
13951;SDS011;39535;52.192;9.886;2023-02-15T15:08:54;10.90;;;9.80;;
13951;SDS011;39535;52.192;9.886;2023-02-15T15:11:38;9.10;;;8.33;;
13951;SDS011;39535;52.192;9.886;2023-02-15T15:14:08;10.20;;;9.17;;